Time;durP1;ratioP1;P1;durP2;ratioP2;P2;SDS_P1;SDS_P2;PMS_P1;PMS_P2;Temp;Humidity;BMP_temperature;BMP_pressure;BME280_temperature;BME280_humidity;BME280_pressure;Samples;Min_cycle;Max_cycle;Signal;HPM_P1;HPM_P2
2021/11/29 00:07:29;;;;;;;0.20;0.10;;;6.10;99.90;;;;;;20736616;28;20239;-70
2021/11/29 00:17:34;;;;;;;0.20;0.10;;;6.10;99.90;;;;;;20737288;28;20195;-70
2021/11/29 00:27:39;;;;;;;0.20;0.10;;;5.60;99.90;;;;;;20733295;28;20714;-71
2021/11/29 00:37:44;;;;;;;0.20;0.10;;;5.80;99.90;;;;;;20734933;28;20202;-73
2021/11/29 00:47:49;;;;;;;0.20;0.10;;;5.80;99.90;;;;;;20735352;28;20309;-71
2021/11/29 00:57:54;;;;;;;0.20;0.10;;;5.80;99.90;;;;;;20733289;28;20592;-72
2021/11/29 01:07:58;;;;;;;0.20;0.13;;;5.80;99.90;;;;;;20779573;23;20594;-79
2021/11/29 01:18:08;;;;;;;0.20;0.20;;;5.50;99.90;;;;;;20746294;28;20551;-80
2021/11/29 01:28:12;;;;;;;0.20;0.10;;;5.40;99.90;;;;;;20749514;28;20317;-80
2021/11/29 01:38:17;;;;;;;0.20;0.10;;;5.20;99.90;;;;;;20749617;28;20302;-78
2021/11/29 01:48:21;;;;;;;0.20;0.10;;;5.20;99.90;;;;;;20749041;28;20250;-80
2021/11/29 01:58:26;;;;;;;0.20;0.10;;;5.10;99.90;;;;;;20749204;28;20622;-77
2021/11/29 02:08:30;;;;;;;0.20;0.10;;;5.20;99.90;;;;;;20833398;23;20327;-67
2021/11/29 02:18:39;;;;;;;0.20;0.10;;;5.40;99.90;;;;;;20745259;28;20289;-68
2021/11/29 02:28:48;;;;;;;0.20;0.10;;;5.30;99.90;;;;;;20743819;28;20237;-68
2021/11/29 02:38:52;;;;;;;0.20;0.10;;;5.30;99.90;;;;;;20812756;28;20298;-68
2021/11/29 02:48:57;;;;;;;0.20;0.10;;;5.20;99.90;;;;;;20824764;28;20218;-70
2021/11/29 02:59:04;;;;;;;0.20;0.10;;;5.10;99.90;;;;;;20824356;28;20229;-70
2021/11/29 03:09:09;;;;;;;0.20;0.10;;;4.90;99.90;;;;;;20822837;28;20241;-70
2021/11/29 03:19:12;;;;;;;0.20;0.10;;;4.50;99.90;;;;;;20822572;28;20218;-70
2021/11/29 03:29:19;;;;;;;0.20;0.10;;;4.40;99.90;;;;;;20821065;28;20240;-68
2021/11/29 03:39:25;;;;;;;0.20;0.10;;;4.70;99.90;;;;;;20818605;28;20194;-68
2021/11/29 03:49:30;;;;;;;0.20;0.10;;;4.80;99.90;;;;;;20820820;28;20257;-68
2021/11/29 03:59:35;;;;;;;0.20;0.10;;;4.80;99.90;;;;;;20829009;23;20194;-77
2021/11/29 04:09:40;;;;;;;0.20;0.10;;;4.80;99.90;;;;;;20738088;28;20725;-79
2021/11/29 04:19:45;;;;;;;0.20;0.10;;;4.80;99.90;;;;;;20737370;28;20310;-76
2021/11/29 04:29:55;;;;;;;0.20;0.10;;;4.70;99.90;;;;;;20737008;28;20251;-77
2021/11/29 04:39:59;;;;;;;0.20;0.10;;;4.30;99.90;;;;;;20736017;28;20226;-75
2021/11/29 04:50:05;;;;;;;0.20;0.10;;;4.60;99.90;;;;;;20744219;28;20313;-77
2021/11/29 05:00:11;;;;;;;0.20;0.10;;;5.00;99.90;;;;;;20753300;28;20555;-78
2021/11/29 05:10:16;;;;;;;0.20;0.10;;;5.10;99.90;;;;;;20756019;28;20250;-75
2021/11/29 05:20:20;;;;;;;0.20;0.10;;;5.10;99.90;;;;;;20750264;28;20198;-75
2021/11/29 05:30:25;;;;;;;0.20;0.10;;;5.20;99.90;;;;;;20750356;28;20250;-74
2021/11/29 05:40:29;;;;;;;0.20;0.10;;;5.30;99.90;;;;;;20756145;28;20206;-76
2021/11/29 05:50:34;;;;;;;0.20;0.10;;;5.20;99.90;;;;;;20775279;28;20215;-76
2021/11/29 06:00:38;;;;;;;0.20;0.10;;;5.30;99.90;;;;;;20746878;28;20234;-76
2021/11/29 06:10:46;;;;;;;0.20;0.10;;;5.10;99.90;;;;;;20747341;28;20230;-77
2021/11/29 06:20:50;;;;;;;0.20;0.10;;;5.10;99.90;;;;;;20745865;28;20282;-78
2021/11/29 06:30:55;;;;;;;0.20;0.10;;;4.90;99.90;;;;;;20745999;28;20555;-77
2021/11/29 06:41:00;;;;;;;0.20;0.10;;;4.70;99.90;;;;;;20742313;28;20285;-77
2021/11/29 06:51:05;;;;;;;0.20;0.10;;;4.60;99.90;;;;;;20743107;28;20246;-77
2021/11/29 07:01:09;;;;;;;0.20;0.10;;;4.90;99.90;;;;;;20739835;28;20222;-75
2021/11/29 07:11:14;;;;;;;0.20;0.10;;;5.00;99.90;;;;;;20738959;28;20232;-75
2021/11/29 07:21:17;;;;;;;0.20;0.10;;;5.00;99.90;;;;;;20741090;28;20225;-75
2021/11/29 07:31:22;;;;;;;0.20;0.10;;;5.20;99.90;;;;;;20737371;28;20265;-75
2021/11/29 07:41:26;;;;;;;0.20;0.10;;;5.60;99.90;;;;;;20739601;28;20195;-73
2021/11/29 07:51:31;;;;;;;0.20;0.10;;;5.80;99.90;;;;;;20737710;28;20235;-74
2021/11/29 08:01:35;;;;;;;0.20;0.10;;;6.10;99.90;;;;;;20737972;28;20257;-75
2021/11/29 08:11:40;;;;;;;0.20;0.10;;;6.40;99.90;;;;;;20734114;28;20227;-72
2021/11/29 08:21:44;;;;;;;0.20;0.10;;;6.90;99.90;;;;;;20734453;28;20199;-74
2021/11/29 08:31:49;;;;;;;0.20;0.10;;;7.30;99.90;;;;;;20748943;28;20471;-73
2021/11/29 08:41:52;;;;;;;0.20;0.10;;;7.90;99.90;;;;;;20765210;28;20194;-75
2021/11/29 08:51:58;;;;;;;0.20;0.10;;;8.30;99.90;;;;;;20742064;28;20791;-75
2021/11/29 09:02:05;;;;;;;0.20;0.10;;;8.30;99.90;;;;;;20735844;28;20657;-77
2021/11/29 09:12:13;;;;;;;0.20;0.10;;;8.80;99.90;;;;;;20735414;28;20606;-78
2021/11/29 09:22:17;;;;;;;0.20;0.10;;;9.40;99.90;;;;;;20734088;28;20281;-78
2021/11/29 09:32:22;;;;;;;0.20;0.10;;;9.70;99.90;;;;;;20716672;28;20235;-77
2021/11/29 09:42:25;;;;;;;0.20;0.10;;;10.00;99.90;;;;;;20733916;28;20194;-76
2021/11/29 09:52:31;;;;;;;0.20;0.10;;;10.40;99.90;;;;;;20732869;28;20229;-78
2021/11/29 10:02:35;;;;;;;0.20;0.10;;;10.90;99.90;;;;;;20733310;28;20234;-76
2021/11/29 10:12:40;;;;;;;0.20;0.10;;;11.40;99.90;;;;;;20733950;28;20734;-78
2021/11/29 10:22:57;;;;;;;0.20;0.10;;;12.00;99.90;;;;;;20735385;28;20202;-80
2021/11/29 10:33:10;;;;;;;0.20;0.10;;;12.30;99.90;;;;;;20740692;28;20233;-80
2021/11/29 10:43:13;;;;;;;0.20;0.10;;;13.00;99.90;;;;;;20741866;28;20723;-82
2021/11/29 10:53:18;;;;;;;0.20;0.10;;;13.20;99.90;;;;;;20756515;28;20242;-76
2021/11/29 11:03:22;;;;;;;0.20;0.10;;;13.90;99.90;;;;;;20760896;28;20269;-75
2021/11/29 11:13:27;;;;;;;0.20;0.10;;;13.90;99.90;;;;;;20740731;28;20223;-75
2021/11/29 11:23:31;;;;;;;0.20;0.00;;;14.80;99.90;;;;;;20742349;28;20663;-77
2021/11/29 11:33:54;;;;;;;0.20;0.10;;;15.00;99.90;;;;;;20741768;28;20227;-79
2021/11/29 11:43:58;;;;;;;0.20;0.10;;;14.60;99.90;;;;;;20735046;28;20595;-76
2021/11/29 11:54:03;;;;;;;0.20;0.10;;;15.30;99.90;;;;;;20738599;28;20597;-79
2021/11/29 12:04:11;;;;;;;0.20;0.10;;;15.90;99.90;;;;;;20735096;28;20231;-77
2021/11/29 12:14:26;;;;;;;0.20;0.10;;;16.20;99.90;;;;;;20734592;28;20240;-76
2021/11/29 12:24:41;;;;;;;0.80;0.60;;;16.80;99.90;;;;;;20728199;28;20185;-69
2021/11/29 12:35:02;;;;;;;0.20;0.10;;;16.80;99.90;;;;;;20733275;28;20233;-75
2021/11/29 12:45:13;;;;;;;0.20;0.10;;;17.20;99.90;;;;;;20735638;28;20264;-76
2021/11/29 12:55:30;;;;;;;0.20;0.20;;;18.00;99.90;;;;;;20740041;28;20228;-81
2021/11/29 13:05:39;;;;;;;0.20;0.10;;;18.20;99.90;;;;;;20737472;28;20309;-81
2021/11/29 13:15:54;;;;;;;0.20;0.00;;;18.80;99.90;;;;;;20746548;28;20226;-77
2021/11/29 13:26:02;;;;;;;0.20;0.10;;;18.60;99.90;;;;;;20752074;28;20207;-79
2021/11/29 13:36:10;;;;;;;0.20;0.03;;;18.10;99.90;;;;;;20750668;28;20268;-79
2021/11/29 13:46:15;;;;;;;0.20;0.10;;;19.00;99.90;;;;;;20751651;28;20636;-78
2021/11/29 13:56:23;;;;;;;0.20;0.00;;;18.90;99.90;;;;;;20751906;28;20718;-78
2021/11/29 14:06:28;;;;;;;0.20;0.07;;;20.20;99.90;;;;;;20735944;28;20288;-74
2021/11/29 14:16:40;;;;;;;0.20;0.10;;;19.20;99.90;;;;;;20730288;28;20313;-77
2021/11/29 14:26:46;;;;;;;0.20;0.00;;;18.20;99.90;;;;;;20728439;28;20202;-75
2021/11/29 14:36:52;;;;;;;0.20;0.10;;;19.20;99.90;;;;;;20727181;28;20234;-79
2021/11/29 14:46:56;;;;;;;0.20;0.10;;;16.20;99.90;;;;;;20728900;28;20199;-82
2021/11/29 14:57:07;;;;;;;0.20;0.10;;;15.60;99.90;;;;;;20727009;28;20256;-82
2021/11/29 15:07:15;;;;;;;0.20;0.00;;;16.00;99.90;;;;;;20767459;28;20241;-78
2021/11/29 15:17:22;;;;;;;0.20;0.10;;;16.80;99.90;;;;;;20729225;28;20272;-78
2021/11/29 15:27:36;;;;;;;0.20;0.10;;;16.50;99.90;;;;;;20723174;28;20194;-77
2021/11/29 15:37:43;;;;;;;0.20;0.10;;;15.70;99.90;;;;;;20723603;28;20677;-75
2021/11/29 15:47:46;;;;;;;0.20;0.00;;;14.80;99.90;;;;;;20724996;28;20205;-77
2021/11/29 15:57:51;;;;;;;0.20;0.10;;;14.50;99.90;;;;;;20724792;28;20413;-77
2021/11/29 16:07:57;;;;;;;0.20;0.10;;;13.90;99.90;;;;;;20726041;28;20226;-76
2021/11/29 16:28:18;;;;;;;0.20;0.10;;;13.30;99.90;;;;;;20723566;22;20242;-76
2021/11/29 16:38:27;;;;;;;0.20;0.10;;;12.50;99.90;;;;;;20724067;28;20230;-74
2021/11/29 16:48:35;;;;;;;0.20;0.10;;;11.60;99.90;;;;;;20759565;28;20209;-76
2021/11/29 16:58:40;;;;;;;0.20;0.10;;;10.80;99.90;;;;;;20760313;28;20254;-76
2021/11/29 17:08:46;;;;;;;0.20;0.10;;;10.60;99.90;;;;;;20739660;28;20610;-75
2021/11/29 17:18:49;;;;;;;0.20;0.10;;;10.20;99.90;;;;;;20738799;28;20396;-73
2021/11/29 17:28:54;;;;;;;0.20;0.10;;;9.90;99.90;;;;;;20750521;28;20656;-75
2021/11/29 17:38:58;;;;;;;0.20;0.10;;;9.90;99.90;;;;;;20740282;28;20236;-75
2021/11/29 17:49:05;;;;;;;0.20;0.10;;;9.70;99.90;;;;;;20735898;28;20722;-73
2021/11/29 17:59:09;;;;;;;0.20;0.10;;;9.80;99.90;;;;;;20757280;28;20326;-76
2021/11/29 18:09:52;;;;;;;0.20;0.10;;;10.60;99.90;;;;;;20779199;28;20245;-75
2021/11/29 18:19:54;;;;;;;0.20;0.10;;;10.60;99.90;;;;;;20751646;28;20230;-76
2021/11/29 18:30:00;;;;;;;0.20;0.10;;;10.50;99.90;;;;;;20749658;28;20233;-75
2021/11/29 18:40:04;;;;;;;0.20;0.10;;;10.30;99.90;;;;;;20744293;28;20317;-75
2021/11/29 18:50:13;;;;;;;0.20;0.10;;;10.20;99.90;;;;;;20745007;28;20215;-73
2021/11/29 19:00:20;;;;;;;0.20;0.10;;;10.00;99.90;;;;;;20745121;28;20203;-75
2021/11/29 19:10:26;;;;;;;0.20;0.10;;;10.00;99.90;;;;;;20745168;28;20698;-75
2021/11/29 19:20:30;;;;;;;0.20;0.10;;;9.90;99.90;;;;;;20741703;28;20225;-73
2021/11/29 19:30:35;;;;;;;0.20;0.10;;;10.00;99.90;;;;;;20738314;28;20238;-75
2021/11/29 19:40:41;;;;;;;0.20;0.10;;;9.90;99.90;;;;;;20737561;28;20553;-76
2021/11/29 19:50:46;;;;;;;0.20;0.10;;;9.80;99.90;;;;;;20755235;28;20222;-77
2021/11/29 20:00:50;;;;;;;0.20;0.10;;;9.80;99.90;;;;;;20753647;28;20289;-75
2021/11/29 20:10:57;;;;;;;0.20;0.10;;;9.70;99.90;;;;;;20733191;28;20718;-78
2021/11/29 20:21:03;;;;;;;0.40;0.40;;;9.20;99.90;;;;;;20730633;28;20246;-69
2021/11/29 20:31:10;;;;;;;0.20;0.10;;;8.90;99.90;;;;;;20735824;28;20258;-75
2021/11/29 20:41:14;;;;;;;0.20;0.10;;;8.40;99.90;;;;;;20738703;28;20293;-76
2021/11/29 20:51:22;;;;;;;0.20;0.10;;;7.90;99.90;;;;;;20769188;28;20223;-76
2021/11/29 21:01:26;;;;;;;0.20;0.10;;;7.60;99.90;;;;;;20738115;28;20203;-75
2021/11/29 21:11:32;;;;;;;0.20;0.10;;;7.50;99.90;;;;;;20731952;28;20251;-75
2021/11/29 21:21:38;;;;;;;0.20;0.10;;;7.40;99.90;;;;;;20746102;28;20657;-75
2021/11/29 21:31:43;;;;;;;0.20;0.10;;;7.20;99.90;;;;;;20735269;28;20317;-75
2021/11/29 21:41:46;;;;;;;0.20;0.10;;;7.10;99.90;;;;;;20744767;28;20670;-75
2021/11/29 21:51:51;;;;;;;0.40;0.40;;;7.00;99.90;;;;;;20744575;28;20234;-75
2021/11/29 22:01:58;;;;;;;0.20;0.10;;;7.00;99.90;;;;;;20743532;28;20321;-74
2021/11/29 22:12:04;;;;;;;0.20;0.10;;;7.00;99.90;;;;;;20744538;28;20269;-76
2021/11/29 22:22:07;;;;;;;0.20;0.10;;;7.20;99.90;;;;;;20744639;28;20323;-76
2021/11/29 22:32:12;;;;;;;0.40;0.40;;;7.40;99.90;;;;;;20743251;28;20230;-79
2021/11/29 22:42:19;;;;;;;0.20;0.10;;;7.20;99.90;;;;;;20743825;28;20225;-77
2021/11/29 22:52:24;;;;;;;0.20;0.10;;;7.10;99.90;;;;;;20744165;28;20250;-77
2021/11/29 23:02:27;;;;;;;0.20;0.10;;;7.20;99.90;;;;;;20742764;28;20213;-77
2021/11/29 23:12:32;;;;;;;0.20;0.10;;;7.20;99.90;;;;;;20741925;28;20265;-78
2021/11/29 23:22:36;;;;;;;0.20;0.13;;;7.30;99.90;;;;;;20741590;28;20219;-78
2021/11/29 23:32:41;;;;;;;0.20;0.10;;;7.60;99.90;;;;;;20753559;28;20256;-78
2021/11/29 23:42:45;;;;;;;0.20;0.10;;;8.00;99.90;;;;;;20739396;28;20281;-78
2021/11/29 23:52:57;;;;;;;0.20;0.10;;;8.20;99.90;;;;;;20738870;28;20309;-79
